Terminal Aerodrome Forecast
Issued by NWS

Home | Current Version | Previous Version | Text Only | Print | Product List | Glossary On
Versions: 1 2 3 4 5 6 7 8 9 10 11 12 13 14 15 16 17 18 19 20 21 22 23 24
185
FTUS43 KPAH 281217 AAA
TAFCGI
TAF AMD
KCGI 281217Z 2812/0112 20012G20KT P6SM SCT006 OVC015
      TEMPO 2812/2815 3SM BR OVC005
     FM282100 20015G25KT P6SM SCT020 OVC050 PROB30 0100/0106
      VRB15G30KT 4SM TSRA BR BKN020CB
     FM010600 21015G25KT P6SM BKN050=

USA.gov is the U.S. government's official web portal to all federal, state and local government web resources and services.